sensor_id;sensor_type;location;lat;lon;timestamp;pressure;altitude;pressure_sealevel;temperature;humidity
31911;BME280;18457;52.432;16.914;2023-01-28T00:01:38;101451.71;;;1.12;75.45
31911;BME280;18457;52.432;16.914;2023-01-28T00:04:07;101455.90;;;1.27;75.39
31911;BME280;18457;52.432;16.914;2023-01-28T00:06:35;101447.04;;;1.28;74.87
31911;BME280;18457;52.432;16.914;2023-01-28T00:09:04;101450.12;;;1.12;74.79
31911;BME280;18457;52.432;16.914;2023-01-28T00:11:33;101448.52;;;1.07;75.08
31911;BME280;18457;52.432;16.914;2023-01-28T00:14:02;101447.95;;;1.11;75.00
31911;BME280;18457;52.432;16.914;2023-01-28T00:16:31;101451.13;;;1.16;74.73
31911;BME280;18457;52.432;16.914;2023-01-28T00:18:59;101452.77;;;1.23;75.00
31911;BME280;18457;52.432;16.914;2023-01-28T00:21:28;101445.95;;;1.27;74.76
31911;BME280;18457;52.432;16.914;2023-01-28T00:23:56;101449.20;;;1.23;74.29
31911;BME280;18457;52.432;16.914;2023-01-28T00:26:25;101457.15;;;1.21;74.36
31911;BME280;18457;52.432;16.914;2023-01-28T00:28:54;101459.45;;;1.26;74.19
31911;BME280;18457;52.432;16.914;2023-01-28T00:31:24;101453.87;;;1.25;73.96
31911;BME280;18457;52.432;16.914;2023-01-28T00:33:55;101453.66;;;1.12;73.99
31911;BME280;18457;52.432;16.914;2023-01-28T00:36:25;101457.69;;;1.10;74.00
31911;BME280;18457;52.432;16.914;2023-01-28T00:38:55;101449.96;;;0.96;74.08
31911;BME280;18457;52.432;16.914;2023-01-28T00:41:25;101453.83;;;1.00;74.52
31911;BME280;18457;52.432;16.914;2023-01-28T00:43:54;101453.49;;;0.89;74.82
31911;BME280;18457;52.432;16.914;2023-01-28T00:46:23;101457.66;;;0.91;74.89
31911;BME280;18457;52.432;16.914;2023-01-28T00:48:53;101460.85;;;0.92;75.09
31911;BME280;18457;52.432;16.914;2023-01-28T00:51:22;101462.48;;;0.92;74.97
31911;BME280;18457;52.432;16.914;2023-01-28T00:53:50;101465.73;;;1.00;75.25
31911;BME280;18457;52.432;16.914;2023-01-28T00:56:19;101466.20;;;1.09;74.72
31911;BME280;18457;52.432;16.914;2023-01-28T00:58:48;101463.88;;;1.14;74.38
31911;BME280;18457;52.432;16.914;2023-01-28T01:01:18;101458.89;;;1.20;74.08
31911;BME280;18457;52.432;16.914;2023-01-28T01:03:47;101459.38;;;1.24;74.15
31911;BME280;18457;52.432;16.914;2023-01-28T01:06:24;101461.42;;;1.27;74.10
31911;BME280;18457;52.432;16.914;2023-01-28T01:08:54;101464.69;;;1.17;74.25
31911;BME280;18457;52.432;16.914;2023-01-28T01:11:23;101464.83;;;1.10;74.67
31911;BME280;18457;52.432;16.914;2023-01-28T01:13:53;101463.88;;;1.14;74.39
31911;BME280;18457;52.432;16.914;2023-01-28T01:16:24;101465.52;;;1.15;74.45
31911;BME280;18457;52.432;16.914;2023-01-28T01:18:54;101462.06;;;1.19;74.17
31911;BME280;18457;52.432;16.914;2023-01-28T01:21:25;101461.03;;;0.97;74.17
31911;BME280;18457;52.432;16.914;2023-01-28T01:23:55;101462.88;;;0.88;74.65
31911;BME280;18457;52.432;16.914;2023-01-28T01:26:24;101461.20;;;0.74;75.07
31911;BME280;18457;52.432;16.914;2023-01-28T01:28:54;101460.95;;;0.83;75.08
31911;BME280;18457;52.432;16.914;2023-01-28T01:31:23;101466.91;;;0.75;75.35
31911;BME280;18457;52.432;16.914;2023-01-28T01:33:51;101469.94;;;0.81;75.43
31911;BME280;18457;52.432;16.914;2023-01-28T01:36:20;101463.08;;;0.77;75.59
31911;BME280;18457;52.432;16.914;2023-01-28T01:38:52;101467.09;;;0.64;76.11
31911;BME280;18457;52.432;16.914;2023-01-28T01:41:25;101468.77;;;0.72;75.89
31911;BME280;18457;52.432;16.914;2023-01-28T01:43:56;101465.85;;;0.75;75.75
31911;BME280;18457;52.432;16.914;2023-01-28T01:46:32;101459.37;;;0.84;75.40
31911;BME280;18457;52.432;16.914;2023-01-28T01:49:07;101463.49;;;0.96;75.20
31911;BME280;18457;52.432;16.914;2023-01-28T01:51:39;101458.35;;;1.03;75.28
31911;BME280;18457;52.432;16.914;2023-01-28T01:54:08;101453.16;;;1.01;75.39
31911;BME280;18457;52.432;16.914;2023-01-28T01:56:39;101453.94;;;0.87;75.81
31911;BME280;18457;52.432;16.914;2023-01-28T01:59:11;101449.06;;;0.73;76.09
31911;BME280;18457;52.432;16.914;2023-01-28T02:01:41;101448.94;;;0.64;76.21
31911;BME280;18457;52.432;16.914;2023-01-28T02:04:17;101449.61;;;0.63;76.87
31911;BME280;18457;52.432;16.914;2023-01-28T02:06:47;101449.17;;;0.71;76.12
31911;BME280;18457;52.432;16.914;2023-01-28T02:09:22;101451.50;;;0.82;75.61
31911;BME280;18457;52.432;16.914;2023-01-28T02:11:53;101455.34;;;0.75;75.21
31911;BME280;18457;52.432;16.914;2023-01-28T02:14:23;101454.04;;;0.79;74.79
31911;BME280;18457;52.432;16.914;2023-01-28T02:17:00;101460.47;;;0.63;75.20
31911;BME280;18457;52.432;16.914;2023-01-28T02:19:35;101460.02;;;0.66;75.12
31911;BME280;18457;52.432;16.914;2023-01-28T02:22:26;101455.70;;;0.59;74.94
31911;BME280;18457;52.432;16.914;2023-01-28T02:25:12;101458.19;;;0.64;75.64
31911;BME280;18457;52.432;16.914;2023-01-28T02:28:05;101458.75;;;0.65;75.32
31911;BME280;18457;52.432;16.914;2023-01-28T02:30:41;101460.31;;;0.64;75.70
31911;BME280;18457;52.432;16.914;2023-01-28T02:33:13;101461.63;;;0.76;75.25
31911;BME280;18457;52.432;16.914;2023-01-28T02:35:48;101462.17;;;0.82;74.91
31911;BME280;18457;52.432;16.914;2023-01-28T02:38:25;101460.25;;;0.89;74.86
31911;BME280;18457;52.432;16.914;2023-01-28T02:41:00;101462.45;;;0.80;74.40
31911;BME280;18457;52.432;16.914;2023-01-28T02:43:35;101463.84;;;0.68;75.39
31911;BME280;18457;52.432;16.914;2023-01-28T02:46:17;101469.10;;;0.71;75.77
31911;BME280;18457;52.432;16.914;2023-01-28T02:49:09;101466.86;;;0.73;75.32
31911;BME280;18457;52.432;16.914;2023-01-28T02:51:55;101468.90;;;0.71;74.83
31911;BME280;18457;52.432;16.914;2023-01-28T02:54:33;101461.55;;;0.69;74.60
31911;BME280;18457;52.432;16.914;2023-01-28T02:57:14;101460.70;;;0.65;75.22
31911;BME280;18457;52.432;16.914;2023-01-28T02:59:53;101464.91;;;0.68;75.10
31911;BME280;18457;52.432;16.914;2023-01-28T03:02:32;101463.98;;;0.56;75.87
31911;BME280;18457;52.432;16.914;2023-01-28T03:05:12;101464.52;;;0.51;75.83
31911;BME280;18457;52.432;16.914;2023-01-28T03:07:44;101469.52;;;0.52;75.44
31911;BME280;18457;52.432;16.914;2023-01-28T03:10:16;101473.77;;;0.62;75.48
31911;BME280;18457;52.432;16.914;2023-01-28T03:12:50;101473.91;;;0.66;75.03
31911;BME280;18457;52.432;16.914;2023-01-28T03:15:39;101471.56;;;0.54;74.86
31911;BME280;18457;52.432;16.914;2023-01-28T03:18:31;101475.59;;;0.58;75.05
31911;BME280;18457;52.432;16.914;2023-01-28T03:21:25;101476.77;;;0.50;75.51
31911;BME280;18457;52.432;16.914;2023-01-28T03:24:18;101481.36;;;0.50;75.56
31911;BME280;18457;52.432;16.914;2023-01-28T03:27:13;101477.73;;;0.43;75.28
31911;BME280;18457;52.432;16.914;2023-01-28T03:30:10;101479.05;;;0.50;75.66
31911;BME280;18457;52.432;16.914;2023-01-28T03:33:01;101482.81;;;0.57;75.02
31911;BME280;18457;52.432;16.914;2023-01-28T03:35:49;101479.04;;;0.50;74.77
31911;BME280;18457;52.432;16.914;2023-01-28T03:38:39;101471.79;;;0.50;75.70
31911;BME280;18457;52.432;16.914;2023-01-28T03:41:18;101492.45;;;0.63;75.96
31911;BME280;18457;52.432;16.914;2023-01-28T03:43:48;101491.38;;;0.62;75.49
31911;BME280;18457;52.432;16.914;2023-01-28T03:46:17;101494.45;;;0.59;75.24
31911;BME280;18457;52.432;16.914;2023-01-28T03:48:45;101486.51;;;0.60;75.72
31911;BME280;18457;52.432;16.914;2023-01-28T03:51:14;101485.24;;;0.55;75.43
31911;BME280;18457;52.432;16.914;2023-01-28T03:53:44;101483.06;;;0.58;75.25
31911;BME280;18457;52.432;16.914;2023-01-28T03:56:13;101485.29;;;0.61;74.22
31911;BME280;18457;52.432;16.914;2023-01-28T03:58:45;101487.95;;;0.56;74.22
31911;BME280;18457;52.432;16.914;2023-01-28T04:01:20;101490.20;;;0.59;74.40
31911;BME280;18457;52.432;16.914;2023-01-28T04:03:49;101492.58;;;0.55;73.49
31911;BME280;18457;52.432;16.914;2023-01-28T04:06:27;101486.95;;;0.58;73.06
31911;BME280;18457;52.432;16.914;2023-01-28T04:09:01;101490.21;;;0.54;73.20
31911;BME280;18457;52.432;16.914;2023-01-28T04:11:52;101489.87;;;0.44;72.81
31911;BME280;18457;52.432;16.914;2023-01-28T04:14:26;101494.79;;;0.38;73.53
31911;BME280;18457;52.432;16.914;2023-01-28T04:16:58;101500.40;;;0.35;72.90
31911;BME280;18457;52.432;16.914;2023-01-28T04:19:27;101504.21;;;0.48;72.58
31911;BME280;18457;52.432;16.914;2023-01-28T04:21:56;101504.80;;;0.44;71.35
31911;BME280;18457;52.432;16.914;2023-01-28T04:24:26;101505.23;;;0.36;71.79
31911;BME280;18457;52.432;16.914;2023-01-28T04:26:54;101503.58;;;0.24;72.16
31911;BME280;18457;52.432;16.914;2023-01-28T04:29:25;101504.66;;;0.25;71.91
31911;BME280;18457;52.432;16.914;2023-01-28T04:31:56;101507.10;;;0.39;71.58
31911;BME280;18457;52.432;16.914;2023-01-28T04:34:55;101511.72;;;0.39;71.19
31911;BME280;18457;52.432;16.914;2023-01-28T04:37:43;101513.11;;;0.38;70.98
31911;BME280;18457;52.432;16.914;2023-01-28T04:40:43;101505.48;;;0.43;71.03
31911;BME280;18457;52.432;16.914;2023-01-28T04:43:21;101509.51;;;0.42;70.63
31911;BME280;18457;52.432;16.914;2023-01-28T04:45:52;101510.79;;;0.23;70.04
31911;BME280;18457;52.432;16.914;2023-01-28T04:48:35;101509.56;;;0.13;70.86
31911;BME280;18457;52.432;16.914;2023-01-28T04:51:31;101502.83;;;0.23;71.07
31911;BME280;18457;52.432;16.914;2023-01-28T04:54:14;101504.60;;;0.38;70.42
31911;BME280;18457;52.432;16.914;2023-01-28T04:56:43;101507.09;;;0.28;69.90
31911;BME280;18457;52.432;16.914;2023-01-28T04:59:12;101508.89;;;0.34;70.17
31911;BME280;18457;52.432;16.914;2023-01-28T05:01:40;101501.77;;;0.44;69.61
31911;BME280;18457;52.432;16.914;2023-01-28T05:04:09;101503.83;;;0.47;68.56
31911;BME280;18457;52.432;16.914;2023-01-28T05:06:39;101497.55;;;0.45;68.44
31911;BME280;18457;52.432;16.914;2023-01-28T05:09:17;101503.39;;;0.45;68.05
31911;BME280;18457;52.432;16.914;2023-01-28T05:11:46;101499.98;;;0.38;67.44
31911;BME280;18457;52.432;16.914;2023-01-28T05:14:15;101504.84;;;0.20;67.77
31911;BME280;18457;52.432;16.914;2023-01-28T05:16:47;101502.55;;;0.16;68.47
31911;BME280;18457;52.432;16.914;2023-01-28T05:19:17;101506.26;;;0.20;68.61
31911;BME280;18457;52.432;16.914;2023-01-28T05:21:47;101508.50;;;0.29;68.00
31911;BME280;18457;52.432;16.914;2023-01-28T05:24:24;101517.35;;;0.18;68.25
31911;BME280;18457;52.432;16.914;2023-01-28T05:26:54;101522.44;;;0.15;68.46
31911;BME280;18457;52.432;16.914;2023-01-28T05:29:22;101523.05;;;0.18;68.59
31911;BME280;18457;52.432;16.914;2023-01-28T05:31:50;101519.85;;;0.13;68.84
31911;BME280;18457;52.432;16.914;2023-01-28T05:34:20;101516.29;;;-0.02;68.96
31911;BME280;18457;52.432;16.914;2023-01-28T05:36:48;101522.84;;;0.02;69.47
31911;BME280;18457;52.432;16.914;2023-01-28T05:39:37;101521.59;;;0.02;68.80
31911;BME280;18457;52.432;16.914;2023-01-28T05:42:06;101523.27;;;0.14;68.57
31911;BME280;18457;52.432;16.914;2023-01-28T05:44:36;101532.11;;;0.13;68.76
31911;BME280;18457;52.432;16.914;2023-01-28T05:47:25;101536.24;;;0.14;68.39
31911;BME280;18457;52.432;16.914;2023-01-28T05:50:07;101538.16;;;0.04;68.56
31911;BME280;18457;52.432;16.914;2023-01-28T05:52:44;101541.36;;;0.13;68.93
31911;BME280;18457;52.432;16.914;2023-01-28T05:55:21;101539.58;;;0.23;69.26
31911;BME280;18457;52.432;16.914;2023-01-28T05:57:50;101541.44;;;0.25;68.81
31911;BME280;18457;52.432;16.914;2023-01-28T06:00:22;101540.29;;;0.22;68.48
31911;BME280;18457;52.432;16.914;2023-01-28T06:02:51;101543.76;;;0.20;69.23
31911;BME280;18457;52.432;16.914;2023-01-28T06:05:20;101551.69;;;0.28;69.26
31911;BME280;18457;52.432;16.914;2023-01-28T06:07:49;101553.41;;;0.27;69.38
31911;BME280;18457;52.432;16.914;2023-01-28T06:10:18;101551.28;;;0.17;68.75
31911;BME280;18457;52.432;16.914;2023-01-28T06:12:47;101556.77;;;0.07;69.62
31911;BME280;18457;52.432;16.914;2023-01-28T06:15:35;101560.29;;;0.06;69.00
31911;BME280;18457;52.432;16.914;2023-01-28T06:18:24;101552.26;;;0.15;68.67
31911;BME280;18457;52.432;16.914;2023-01-28T06:20:53;101556.08;;;0.27;68.37
31911;BME280;18457;52.432;16.914;2023-01-28T06:23:21;101561.20;;;0.26;67.78
31911;BME280;18457;52.432;16.914;2023-01-28T06:25:53;101558.41;;;0.28;67.74
31911;BME280;18457;52.432;16.914;2023-01-28T06:28:22;101565.23;;;0.34;67.27
31911;BME280;18457;52.432;16.914;2023-01-28T06:30:51;101565.48;;;0.36;66.76
31911;BME280;18457;52.432;16.914;2023-01-28T06:33:20;101564.38;;;0.45;66.63
31911;BME280;18457;52.432;16.914;2023-01-28T06:35:50;101569.27;;;0.53;66.98
31911;BME280;18457;52.432;16.914;2023-01-28T06:38:19;101566.70;;;0.61;66.92
31911;BME280;18457;52.432;16.914;2023-01-28T06:40:51;101568.55;;;0.62;66.28
31911;BME280;18457;52.432;16.914;2023-01-28T06:43:19;101569.85;;;0.64;66.35
31911;BME280;18457;52.432;16.914;2023-01-28T06:45:48;101575.95;;;0.41;66.50
31911;BME280;18457;52.432;16.914;2023-01-28T06:48:19;101574.42;;;0.38;66.22
31911;BME280;18457;52.432;16.914;2023-01-28T06:50:48;101574.21;;;0.37;66.02
31911;BME280;18457;52.432;16.914;2023-01-28T06:53:18;101568.30;;;0.36;66.16
31911;BME280;18457;52.432;16.914;2023-01-28T06:55:46;101575.04;;;0.40;65.96
31911;BME280;18457;52.432;16.914;2023-01-28T06:58:16;101580.41;;;0.51;65.75
31911;BME280;18457;52.432;16.914;2023-01-28T07:00:45;101584.44;;;0.54;66.19
31911;BME280;18457;52.432;16.914;2023-01-28T07:03:13;101581.38;;;0.64;65.82
31911;BME280;18457;52.432;16.914;2023-01-28T07:05:42;101577.67;;;0.69;65.30
31911;BME280;18457;52.432;16.914;2023-01-28T07:08:10;101582.25;;;0.73;65.60
31911;BME280;18457;52.432;16.914;2023-01-28T07:10:39;101585.31;;;0.69;65.13
31911;BME280;18457;52.432;16.914;2023-01-28T07:13:07;101587.14;;;0.70;65.29
31911;BME280;18457;52.432;16.914;2023-01-28T07:15:36;101586.75;;;0.65;65.70
31911;BME280;18457;52.432;16.914;2023-01-28T07:18:04;101583.27;;;0.67;65.46
31911;BME280;18457;52.432;16.914;2023-01-28T07:20:34;101582.40;;;0.78;65.68
31911;BME280;18457;52.432;16.914;2023-01-28T07:23:02;101590.52;;;0.86;66.29
31911;BME280;18457;52.432;16.914;2023-01-28T07:25:31;101587.05;;;0.89;65.86
31911;BME280;18457;52.432;16.914;2023-01-28T07:28:00;101587.52;;;0.87;66.02
31911;BME280;18457;52.432;16.914;2023-01-28T07:30:29;101587.39;;;0.88;65.79
31911;BME280;18457;52.432;16.914;2023-01-28T07:32:58;101579.36;;;0.88;66.23
31911;BME280;18457;52.432;16.914;2023-01-28T07:35:27;101583.91;;;0.96;65.63
31911;BME280;18457;52.432;16.914;2023-01-28T07:37:58;101579.48;;;0.97;65.23
31911;BME280;18457;52.432;16.914;2023-01-28T07:40:27;101586.55;;;1.01;65.05
31911;BME280;18457;52.432;16.914;2023-01-28T07:42:57;101582.40;;;1.04;65.47
31911;BME280;18457;52.432;16.914;2023-01-28T07:45:27;101588.15;;;1.00;65.71
31911;BME280;18457;52.432;16.914;2023-01-28T07:47:58;101581.85;;;0.98;65.61
31911;BME280;18457;52.432;16.914;2023-01-28T07:50:29;101575.73;;;1.02;66.36
31911;BME280;18457;52.432;16.914;2023-01-28T07:52:58;101579.56;;;1.10;65.90
31911;BME280;18457;52.432;16.914;2023-01-28T07:55:27;101580.31;;;1.16;65.41
31911;BME280;18457;52.432;16.914;2023-01-28T07:57:59;101579.74;;;1.04;65.26
31911;BME280;18457;52.432;16.914;2023-01-28T08:00:29;101577.11;;;1.11;65.22
31911;BME280;18457;52.432;16.914;2023-01-28T08:02:59;101582.82;;;1.11;65.62
31911;BME280;18457;52.432;16.914;2023-01-28T08:05:35;101579.73;;;1.14;64.94
31911;BME280;18457;52.432;16.914;2023-01-28T08:08:06;101568.95;;;1.17;64.72
31911;BME280;18457;52.432;16.914;2023-01-28T08:10:36;101578.86;;;1.20;64.35
31911;BME280;18457;52.432;16.914;2023-01-28T08:13:05;101580.47;;;1.16;64.79
31911;BME280;18457;52.432;16.914;2023-01-28T08:15:35;101580.91;;;1.19;65.31
31911;BME280;18457;52.432;16.914;2023-01-28T08:18:05;101583.04;;;0.96;65.06
31911;BME280;18457;52.432;16.914;2023-01-28T08:20:34;101577.61;;;0.83;65.50
31911;BME280;18457;52.432;16.914;2023-01-28T08:23:06;101577.67;;;0.95;66.21
31911;BME280;18457;52.432;16.914;2023-01-28T08:25:35;101573.63;;;0.97;65.86
31911;BME280;18457;52.432;16.914;2023-01-28T08:28:05;101575.20;;;0.96;65.22
31911;BME280;18457;52.432;16.914;2023-01-28T08:30:34;101572.21;;;1.02;65.44
31911;BME280;18457;52.432;16.914;2023-01-28T08:33:07;101575.14;;;1.00;65.44
31911;BME280;18457;52.432;16.914;2023-01-28T08:35:38;101573.78;;;0.85;64.83
31911;BME280;18457;52.432;16.914;2023-01-28T08:38:09;101577.45;;;0.94;64.50
31911;BME280;18457;52.432;16.914;2023-01-28T08:40:38;101576.35;;;1.09;64.13
31911;BME280;18457;52.432;16.914;2023-01-28T08:43:07;101575.76;;;1.13;64.64
31911;BME280;18457;52.432;16.914;2023-01-28T08:45:39;101579.09;;;1.06;64.53
31911;BME280;18457;52.432;16.914;2023-01-28T08:48:13;101585.34;;;1.07;65.09
31911;BME280;18457;52.432;16.914;2023-01-28T08:50:43;101586.64;;;1.14;64.45
31911;BME280;18457;52.432;16.914;2023-01-28T08:53:15;101586.23;;;1.23;64.47
31911;BME280;18457;52.432;16.914;2023-01-28T08:55:45;101582.90;;;1.14;64.25
31911;BME280;18457;52.432;16.914;2023-01-28T08:58:16;101588.22;;;1.08;65.49
31911;BME280;18457;52.432;16.914;2023-01-28T09:00:49;101592.70;;;1.19;65.81
31911;BME280;18457;52.432;16.914;2023-01-28T09:03:20;101597.57;;;1.16;64.92
31911;BME280;18457;52.432;16.914;2023-01-28T09:05:51;101598.40;;;1.25;64.84
31911;BME280;18457;52.432;16.914;2023-01-28T09:08:21;101601.85;;;1.32;64.73
31911;BME280;18457;52.432;16.914;2023-01-28T09:10:56;101599.33;;;1.21;64.70
31911;BME280;18457;52.432;16.914;2023-01-28T09:13:25;101599.94;;;1.12;65.49
31911;BME280;18457;52.432;16.914;2023-01-28T09:15:54;101605.11;;;1.18;64.77
31911;BME280;18457;52.432;16.914;2023-01-28T09:18:23;101603.08;;;1.27;64.50
31911;BME280;18457;52.432;16.914;2023-01-28T09:20:51;101605.64;;;1.13;64.31
31911;BME280;18457;52.432;16.914;2023-01-28T09:23:20;101600.55;;;1.20;65.12
31911;BME280;18457;52.432;16.914;2023-01-28T09:25:49;101601.04;;;1.29;65.43
31911;BME280;18457;52.432;16.914;2023-01-28T09:28:18;101602.23;;;1.18;66.07
31911;BME280;18457;52.432;16.914;2023-01-28T09:30:49;101606.14;;;1.06;65.94
31911;BME280;18457;52.432;16.914;2023-01-28T09:33:19;101611.55;;;1.08;65.99
31911;BME280;18457;52.432;16.914;2023-01-28T09:35:49;101603.37;;;1.09;66.56
31911;BME280;18457;52.432;16.914;2023-01-28T09:38:21;101599.67;;;1.05;65.43
31911;BME280;18457;52.432;16.914;2023-01-28T09:40:53;101594.95;;;0.96;65.27
31911;BME280;18457;52.432;16.914;2023-01-28T09:43:43;101591.22;;;0.96;65.23
31911;BME280;18457;52.432;16.914;2023-01-28T09:46:16;101590.72;;;0.87;65.61
31911;BME280;18457;52.432;16.914;2023-01-28T09:48:47;101589.77;;;0.85;66.08
31911;BME280;18457;52.432;16.914;2023-01-28T09:51:27;101592.45;;;0.80;66.28
31911;BME280;18457;52.432;16.914;2023-01-28T09:54:02;101590.91;;;0.82;65.33
31911;BME280;18457;52.432;16.914;2023-01-28T09:56:38;101592.37;;;0.88;65.80
31911;BME280;18457;52.432;16.914;2023-01-28T09:59:17;101590.56;;;0.93;65.77
31911;BME280;18457;52.432;16.914;2023-01-28T10:01:53;101591.13;;;0.99;65.59
31911;BME280;18457;52.432;16.914;2023-01-28T10:04:42;101594.08;;;1.18;65.23
31911;BME280;18457;52.432;16.914;2023-01-28T10:07:32;101596.98;;;1.36;64.34
31911;BME280;18457;52.432;16.914;2023-01-28T10:10:07;101604.23;;;1.46;63.46
31911;BME280;18457;52.432;16.914;2023-01-28T10:12:50;101604.67;;;1.48;63.94
31911;BME280;18457;52.432;16.914;2023-01-28T10:15:46;101600.36;;;1.58;63.52
31911;BME280;18457;52.432;16.914;2023-01-28T10:18:20;101600.09;;;1.66;63.02
31911;BME280;18457;52.432;16.914;2023-01-28T10:20:56;101591.23;;;1.67;62.86
31911;BME280;18457;52.432;16.914;2023-01-28T10:23:40;101604.23;;;1.56;63.33
31911;BME280;18457;52.432;16.914;2023-01-28T10:26:19;101607.21;;;1.22;63.50
31911;BME280;18457;52.432;16.914;2023-01-28T10:28:53;101611.31;;;1.07;64.15
31911;BME280;18457;52.432;16.914;2023-01-28T10:31:30;101615.90;;;1.06;63.92
31911;BME280;18457;52.432;16.914;2023-01-28T10:34:00;101613.00;;;1.04;64.18
31911;BME280;18457;52.432;16.914;2023-01-28T10:36:29;101609.73;;;1.13;64.09
31911;BME280;18457;52.432;16.914;2023-01-28T10:38:58;101620.91;;;1.22;64.35
31911;BME280;18457;52.432;16.914;2023-01-28T10:41:27;101623.52;;;1.20;64.13
31911;BME280;18457;52.432;16.914;2023-01-28T10:43:56;101620.41;;;1.12;64.43
31911;BME280;18457;52.432;16.914;2023-01-28T10:46:30;101626.29;;;1.18;65.75
31911;BME280;18457;52.432;16.914;2023-01-28T10:49:05;101624.02;;;1.09;65.17
31911;BME280;18457;52.432;16.914;2023-01-28T10:51:40;101615.09;;;1.08;65.91
31911;BME280;18457;52.432;16.914;2023-01-28T10:54:19;101611.61;;;1.10;65.60
31911;BME280;18457;52.432;16.914;2023-01-28T10:56:51;101611.23;;;1.15;65.53
31911;BME280;18457;52.432;16.914;2023-01-28T10:59:26;101613.70;;;1.20;65.79
31911;BME280;18457;52.432;16.914;2023-01-28T11:01:57;101613.71;;;1.30;66.41
31911;BME280;18457;52.432;16.914;2023-01-28T11:04:29;101610.05;;;1.49;66.00
31911;BME280;18457;52.432;16.914;2023-01-28T11:07:01;101608.98;;;1.54;65.13
31911;BME280;18457;52.432;16.914;2023-01-28T11:09:35;101612.21;;;1.34;65.93
31911;BME280;18457;52.432;16.914;2023-01-28T11:12:20;101616.46;;;1.12;66.43
31911;BME280;18457;52.432;16.914;2023-01-28T11:14:51;101612.59;;;1.08;67.33
31911;BME280;18457;52.432;16.914;2023-01-28T11:17:22;101616.13;;;0.96;67.66
31911;BME280;18457;52.432;16.914;2023-01-28T11:19:54;101618.41;;;1.01;68.11
31911;BME280;18457;52.432;16.914;2023-01-28T11:22:29;101617.61;;;0.98;68.09
31911;BME280;18457;52.432;16.914;2023-01-28T11:25:00;101609.86;;;0.95;68.13
31911;BME280;18457;52.432;16.914;2023-01-28T11:27:31;101608.41;;;1.00;68.35
31911;BME280;18457;52.432;16.914;2023-01-28T11:30:02;101605.67;;;1.19;68.83
31911;BME280;18457;52.432;16.914;2023-01-28T11:32:32;101601.70;;;1.17;68.15
31911;BME280;18457;52.432;16.914;2023-01-28T11:35:00;101603.77;;;1.20;68.33
31911;BME280;18457;52.432;16.914;2023-01-28T11:37:29;101593.66;;;1.32;67.20
31911;BME280;18457;52.432;16.914;2023-01-28T11:40:08;101592.43;;;1.38;67.03
31911;BME280;18457;52.432;16.914;2023-01-28T11:42:49;101590.56;;;1.46;67.46
31911;BME280;18457;52.432;16.914;2023-01-28T11:45:21;101593.57;;;1.46;67.10
31911;BME280;18457;52.432;16.914;2023-01-28T11:48:04;101595.13;;;1.50;66.50
31911;BME280;18457;52.432;16.914;2023-01-28T11:50:41;101595.33;;;1.45;67.00
31911;BME280;18457;52.432;16.914;2023-01-28T11:53:26;101598.88;;;1.45;67.23
31911;BME280;18457;52.432;16.914;2023-01-28T11:56:10;101589.49;;;1.47;67.06
31911;BME280;18457;52.432;16.914;2023-01-28T11:58:50;101592.02;;;1.36;66.68
31911;BME280;18457;52.432;16.914;2023-01-28T12:01:29;101585.77;;;1.47;68.08
31911;BME280;18457;52.432;16.914;2023-01-28T12:04:30;101582.79;;;1.48;67.61
31911;BME280;18457;52.432;16.914;2023-01-28T12:07:12;101582.46;;;1.44;68.13
31911;BME280;18457;52.432;16.914;2023-01-28T12:09:53;101577.73;;;1.46;68.07
31911;BME280;18457;52.432;16.914;2023-01-28T12:12:37;101577.77;;;1.48;67.45
31911;BME280;18457;52.432;16.914;2023-01-28T12:18:17;101563.76;;;1.49;65.92
31911;BME280;18457;52.432;16.914;2023-01-28T12:20:54;101560.75;;;1.49;65.79
31911;BME280;18457;52.432;16.914;2023-01-28T12:23:35;101557.37;;;1.44;65.60
31911;BME280;18457;52.432;16.914;2023-01-28T12:26:10;101559.34;;;1.45;66.15
31911;BME280;18457;52.432;16.914;2023-01-28T12:28:54;101557.72;;;1.38;65.43
31911;BME280;18457;52.432;16.914;2023-01-28T12:31:42;101555.29;;;1.29;66.15
31911;BME280;18457;52.432;16.914;2023-01-28T12:34:29;101551.52;;;1.28;66.26
31911;BME280;18457;52.432;16.914;2023-01-28T12:37:03;101554.77;;;1.35;66.60
31911;BME280;18457;52.432;16.914;2023-01-28T12:39:44;101551.26;;;1.31;66.35
31911;BME280;18457;52.432;16.914;2023-01-28T12:42:20;101551.28;;;1.49;65.94
31911;BME280;18457;52.432;16.914;2023-01-28T12:44:55;101545.98;;;1.56;65.56
31911;BME280;18457;52.432;16.914;2023-01-28T12:47:32;101553.17;;;1.64;66.23
31911;BME280;18457;52.432;16.914;2023-01-28T12:50:09;101560.64;;;1.63;65.78
31911;BME280;18457;52.432;16.914;2023-01-28T12:52:44;101560.78;;;1.45;65.74
31911;BME280;18457;52.432;16.914;2023-01-28T12:55:18;101562.27;;;1.47;65.99
31911;BME280;18457;52.432;16.914;2023-01-28T12:57:49;101556.14;;;1.50;65.10
31911;BME280;18457;52.432;16.914;2023-01-28T13:00:25;101561.86;;;1.63;64.64
31911;BME280;18457;52.432;16.914;2023-01-28T13:03:04;101564.21;;;1.69;64.02
31911;BME280;18457;52.432;16.914;2023-01-28T13:05:40;101568.34;;;1.53;63.39
31911;BME280;18457;52.432;16.914;2023-01-28T13:08:14;101568.38;;;1.43;63.59
31911;BME280;18457;52.432;16.914;2023-01-28T13:10:45;101569.23;;;1.48;63.64
31911;BME280;18457;52.432;16.914;2023-01-28T13:13:18;101573.23;;;1.50;63.84
31911;BME280;18457;52.432;16.914;2023-01-28T13:15:50;101576.94;;;1.49;63.25
31911;BME280;18457;52.432;16.914;2023-01-28T13:18:42;101581.23;;;1.28;62.77
31911;BME280;18457;52.432;16.914;2023-01-28T13:21:16;101588.78;;;1.19;62.88
31911;BME280;18457;52.432;16.914;2023-01-28T13:23:48;101580.00;;;1.17;63.19
31911;BME280;18457;52.432;16.914;2023-01-28T13:26:27;101569.73;;;1.36;63.54
31911;BME280;18457;52.432;16.914;2023-01-28T13:29:16;101576.98;;;1.34;62.93